Time;durP1;ratioP1;P1;durP2;ratioP2;P2;SDS_P1;SDS_P2;PMS_P1;PMS_P2;Temp;Humidity;BMP_temperature;BMP_pressure;BME280_temperature;BME280_humidity;BME280_pressure;Samples;Min_cycle;Max_cycle;Signal;HPM_P1;HPM_P2
2021/11/10 00:01:55;;;;;;;12.52;8.13;;;0.70;99.90;;;;;;5017165;28;20117;-72
2021/11/10 00:04:27;;;;;;;13.90;8.27;;;0.50;99.90;;;;;;5049804;28;20442;-73
2021/11/10 00:06:59;;;;;;;14.18;8.60;;;0.50;99.90;;;;;;5033322;28;20045;-72
2021/11/10 00:09:30;;;;;;;13.95;9.02;;;0.50;99.90;;;;;;5051198;28;20041;-73
2021/11/10 00:12:03;;;;;;;14.60;8.55;;;0.50;99.90;;;;;;5050884;28;20048;-73
2021/11/10 00:14:30;;;;;;;13.10;8.25;;;0.50;99.90;;;;;;5033567;28;20115;-72
2021/11/10 00:16:57;;;;;;;15.13;9.75;;;0.50;99.90;;;;;;5035242;28;20114;-72
2021/11/10 00:19:24;;;;;;;15.95;9.23;;;0.50;99.90;;;;;;5051158;28;20044;-72
2021/11/10 00:21:56;;;;;;;14.20;8.30;;;0.50;99.90;;;;;;5028970;28;20037;-72
2021/11/10 00:24:28;;;;;;;13.70;8.55;;;0.60;99.90;;;;;;5030815;28;20087;-72
2021/11/10 00:27:00;;;;;;;13.40;7.97;;;0.50;99.90;;;;;;5050165;28;20040;-71
2021/11/10 00:29:27;;;;;;;14.45;8.50;;;0.50;99.90;;;;;;5033033;28;20049;-72
2021/11/10 00:31:59;;;;;;;10.30;7.38;;;0.50;99.90;;;;;;5033041;28;20411;-72
2021/11/10 00:34:25;;;;;;;15.20;8.68;;;0.50;99.90;;;;;;5032505;28;20080;-72
2021/11/10 00:36:57;;;;;;;12.25;8.02;;;0.50;99.90;;;;;;5014529;28;20503;-72
2021/11/10 00:39:24;;;;;;;13.38;8.77;;;0.50;99.90;;;;;;5013511;28;20052;-72
2021/11/10 00:41:56;;;;;;;17.17;13.10;;;0.50;99.90;;;;;;5031177;28;20037;-72
2021/11/10 00:44:23;;;;;;;14.40;10.75;;;0.50;99.90;;;;;;5013188;28;20050;-72
2021/11/10 00:46:50;;;;;;;15.75;8.00;;;0.40;99.90;;;;;;5031203;28;20049;-72
2021/11/10 00:49:17;;;;;;;13.10;9.13;;;0.40;99.90;;;;;;5050805;28;20499;-72
2021/11/10 00:51:44;;;;;;;13.65;8.93;;;0.40;99.90;;;;;;5032966;28;20045;-72
2021/11/10 00:54:16;;;;;;;14.05;9.40;;;0.40;99.90;;;;;;5032786;28;20056;-72
2021/11/10 00:56:48;;;;;;;12.88;8.68;;;0.40;99.90;;;;;;5033215;28;20041;-72
2021/11/10 00:59:20;;;;;;;14.23;9.13;;;0.40;99.90;;;;;;5016574;28;20040;-72
2021/11/10 01:01:52;;;;;;;11.57;8.82;;;0.40;99.90;;;;;;5033019;28;20049;-72
2021/11/10 01:04:24;;;;;;;11.10;7.97;;;0.30;99.90;;;;;;5036125;28;20100;-72
2021/11/10 01:06:56;;;;;;;11.10;8.35;;;0.30;99.90;;;;;;5020931;28;20037;-72
2021/11/10 01:09:27;;;;;;;13.57;7.85;;;0.30;99.90;;;;;;5037671;28;20045;-72
2021/11/10 01:11:59;;;;;;;11.45;7.80;;;0.30;99.90;;;;;;5036544;28;20059;-72
2021/11/10 01:14:31;;;;;;;11.95;7.90;;;0.30;99.90;;;;;;5020223;28;20041;-72
2021/11/10 01:16:58;;;;;;;11.90;7.43;;;0.30;99.90;;;;;;5036668;28;20045;-72
2021/11/10 01:19:30;;;;;;;9.75;6.95;;;0.30;99.90;;;;;;5020892;28;20052;-72
2021/11/10 01:22:02;;;;;;;11.90;7.47;;;0.30;99.90;;;;;;5036383;28;20049;-72
2021/11/10 01:24:29;;;;;;;9.23;7.30;;;0.30;99.90;;;;;;5035928;28;20049;-72
2021/11/10 01:27:01;;;;;;;10.63;7.20;;;0.30;99.90;;;;;;5036776;28;20492;-72
2021/11/10 01:29:34;;;;;;;13.30;7.75;;;0.30;99.90;;;;;;5020833;28;20066;-72
2021/11/10 01:32:07;;;;;;;13.93;7.70;;;0.30;99.90;;;;;;5036199;28;20049;-72
2021/11/10 01:34:39;;;;;;;11.37;7.23;;;0.30;99.90;;;;;;5019706;28;20049;-72
2021/11/10 01:37:14;;;;;;;11.57;6.55;;;0.30;99.90;;;;;;5054083;28;20037;-72
2021/11/10 01:39:48;;;;;;;9.77;6.80;;;0.30;99.90;;;;;;5036238;28;20083;-72
2021/11/10 01:42:19;;;;;;;12.55;7.55;;;0.30;99.90;;;;;;5036054;28;20049;-72
2021/11/10 01:44:51;;;;;;;11.60;7.93;;;0.30;99.90;;;;;;5032309;28;20048;-72
2021/11/10 01:47:18;;;;;;;12.30;8.30;;;0.30;99.90;;;;;;5035899;28;20582;-72
2021/11/10 01:49:45;;;;;;;11.98;7.68;;;0.30;99.90;;;;;;5035961;28;20048;-72
2021/11/10 01:52:17;;;;;;;11.05;7.32;;;0.30;99.90;;;;;;5035836;28;20504;-72
2021/11/10 01:54:50;;;;;;;12.00;8.10;;;0.30;99.90;;;;;;5035494;28;20047;-72
2021/11/10 01:57:25;;;;;;;11.82;8.27;;;0.30;99.90;;;;;;5035484;28;20136;-72
2021/11/10 02:00:17;;;;;;;14.20;8.23;;;0.30;99.90;;;;;;5035380;28;20128;-72
2021/11/10 02:02:54;;;;;;;11.70;7.80;;;0.20;99.90;;;;;;5019500;28;20821;-72
2021/11/10 02:05:56;;;;;;;13.77;8.40;;;0.20;99.90;;;;;;5039997;28;20070;-72
2021/11/10 02:08:44;;;;;;;17.85;9.95;;;0.20;99.90;;;;;;5035028;28;20531;-72
2021/11/10 02:11:25;;;;;;;13.55;9.70;;;0.30;99.90;;;;;;5015086;28;20552;-72
2021/11/10 02:14:02;;;;;;;13.65;9.70;;;0.30;99.90;;;;;;5014667;28;20044;-73
2021/11/10 02:16:38;;;;;;;15.57;10.30;;;0.30;99.90;;;;;;4999862;28;20117;-72
2021/11/10 02:19:18;;;;;;;19.52;10.82;;;0.30;99.90;;;;;;5015005;28;20049;-72
2021/11/10 02:22:01;;;;;;;18.55;10.82;;;0.20;99.90;;;;;;5022046;28;20573;-72
2021/11/10 02:24:33;;;;;;;;;;;0.20;99.90;;;;;;5035751;28;20561;-72
2021/11/10 02:27:01;;;;;;;19.55;10.20;;;0.30;99.90;;;;;;5034832;28;19925;-72
2021/11/10 02:29:32;;;;;;;17.08;11.32;;;0.30;99.90;;;;;;5036044;28;20376;-72
2021/11/10 02:32:09;;;;;;;17.00;9.80;;;0.30;99.90;;;;;;5019305;28;20052;-72
2021/11/10 02:34:37;;;;;;;13.55;8.77;;;0.30;99.90;;;;;;5041051;28;20053;-72
2021/11/10 02:37:13;;;;;;;13.60;9.63;;;0.30;99.90;;;;;;5016312;28;20041;-72
2021/11/10 02:39:46;;;;;;;15.85;10.15;;;0.30;99.90;;;;;;5033083;28;20040;-73
2021/11/10 02:42:19;;;;;;;16.67;10.40;;;0.30;99.90;;;;;;5015650;28;20072;-72
2021/11/10 02:44:53;;;;;;;17.48;9.68;;;0.30;99.90;;;;;;5034832;28;20061;-72
2021/11/10 02:47:26;;;;;;;12.68;8.80;;;0.30;99.90;;;;;;5014154;28;20053;-72
2021/11/10 02:49:58;;;;;;;15.98;9.90;;;0.30;99.90;;;;;;5014707;28;20566;-72
2021/11/10 02:52:29;;;;;;;12.00;8.68;;;0.30;99.90;;;;;;5036725;28;20091;-73
2021/11/10 02:54:56;;;;;;;15.70;9.82;;;0.30;99.90;;;;;;5052279;28;20036;-72
2021/11/10 02:57:26;;;;;;;13.73;8.73;;;0.20;99.90;;;;;;5023029;28;20041;-72
2021/11/10 02:59:58;;;;;;;14.18;8.60;;;0.20;99.90;;;;;;5015854;28;20052;-72
2021/11/10 03:02:31;;;;;;;9.95;7.40;;;0.20;99.90;;;;;;4999238;28;20041;-72
2021/11/10 03:05:07;;;;;;;13.60;8.68;;;0.20;99.90;;;;;;5025871;28;20037;-72
2021/11/10 03:07:39;;;;;;;12.65;8.15;;;0.10;99.90;;;;;;5034257;28;20083;-72
2021/11/10 03:10:11;;;;;;;13.07;8.00;;;0.20;99.90;;;;;;5034432;28;20072;-72
2021/11/10 03:12:43;;;;;;;13.95;8.15;;;0.20;99.90;;;;;;5034642;28;20052;-72
2021/11/10 03:15:19;;;;;;;14.55;8.65;;;0.10;99.90;;;;;;5036363;28;20033;-73
2021/11/10 03:17:51;;;;;;;11.80;8.63;;;0.20;99.90;;;;;;5019241;28;20100;-72
2021/11/10 03:20:19;;;;;;;14.40;8.98;;;0.10;99.90;;;;;;5014982;28;20045;-72
2021/11/10 03:22:51;;;;;;;12.88;8.02;;;0.10;99.90;;;;;;4998723;28;20049;-72
2021/11/10 03:25:23;;;;;;;16.33;8.80;;;0.10;99.90;;;;;;5013380;28;20073;-72
2021/11/10 03:27:51;;;;;;;14.43;8.93;;;0.10;99.90;;;;;;5014360;28;20041;-72
2021/11/10 03:30:24;;;;;;;18.30;8.95;;;0.10;99.90;;;;;;5018095;28;20060;-72
2021/11/10 03:32:56;;;;;;;11.90;7.35;;;0.10;99.90;;;;;;5033637;28;20099;-72
2021/11/10 03:35:28;;;;;;;12.27;8.60;;;0.10;99.90;;;;;;5017902;28;20049;-72
2021/11/10 03:37:58;;;;;;;13.63;8.57;;;0.00;99.90;;;;;;5033732;28;20051;-72
2021/11/10 03:40:28;;;;;;;12.60;8.45;;;0.10;99.90;;;;;;5033420;28;20049;-72
2021/11/10 03:42:59;;;;;;;15.85;9.00;;;0.10;99.90;;;;;;5018073;28;20041;-72
2021/11/10 03:45:33;;;;;;;13.10;9.18;;;0.10;99.90;;;;;;5034439;28;20041;-72
2021/11/10 03:48:10;;;;;;;12.57;8.23;;;0.10;99.90;;;;;;5030230;28;20132;-72
2021/11/10 03:50:44;;;;;;;11.45;7.53;;;0.00;99.90;;;;;;5033641;28;20064;-72
2021/11/10 03:53:18;;;;;;;17.63;8.73;;;0.10;99.90;;;;;;5034124;28;20088;-72
2021/11/10 03:55:50;;;;;;;14.57;8.50;;;0.00;99.90;;;;;;5051295;28;20056;-72
2021/11/10 03:58:22;;;;;;;13.10;9.10;;;0.00;99.90;;;;;;5017616;28;20041;-72
2021/11/10 04:00:57;;;;;;;16.95;9.55;;;0.00;99.90;;;;;;5033375;28;20045;-72
2021/11/10 04:03:30;;;;;;;14.00;8.90;;;0.00;99.90;;;;;;5033522;28;20049;-72
2021/11/10 04:05:56;;;;;;;13.23;8.45;;;0.00;99.90;;;;;;5033281;28;20484;-72
2021/11/10 04:08:30;;;;;;;;;;;0.00;99.90;;;;;;5018519;28;20041;-72
2021/11/10 04:11:03;;;;;;;14.63;9.13;;;0.00;99.90;;;;;;5034565;28;20295;-72
2021/11/10 04:13:36;;;;;;;;;;;0.00;99.90;;;;;;5033662;28;20045;-72
2021/11/10 04:16:04;;;;;;;17.73;12.40;;;0.00;99.90;;;;;;5033041;28;19927;-73
2021/11/10 04:18:36;;;;;;;18.70;12.75;;;0.00;99.90;;;;;;5043508;28;20033;-72
2021/11/10 04:21:14;;;;;;;23.27;13.70;;;0.00;99.90;;;;;;5036456;28;20396;-72
2021/11/10 04:23:52;;;;;;;16.15;11.48;;;0.00;99.90;;;;;;5044822;28;20054;-72
2021/11/10 04:26:23;;;;;;;17.63;10.93;;;0.00;99.90;;;;;;5039256;28;20049;-71
2021/11/10 04:28:52;;;;;;;18.40;11.57;;;0.00;99.90;;;;;;5033472;28;20287;-72
2021/11/10 04:31:25;;;;;;;18.23;10.85;;;0.00;99.90;;;;;;5033280;28;20133;-72
2021/11/10 04:33:53;;;;;;;15.70;10.70;;;0.00;99.90;;;;;;5033128;28;20128;-72
2021/11/10 04:36:30;;;;;;;14.25;9.02;;;0.00;99.90;;;;;;5034460;28;20464;-72
2021/11/10 04:39:05;;;;;;;12.93;9.13;;;0.00;99.90;;;;;;5022168;28;20040;-72
2021/11/10 04:41:37;;;;;;;16.30;10.60;;;0.00;99.90;;;;;;5021402;28;20315;-72
2021/11/10 04:44:11;;;;;;;18.92;11.35;;;0.00;99.90;;;;;;5036687;28;20507;-72
2021/11/10 04:46:41;;;;;;;17.90;10.63;;;0.00;99.90;;;;;;5033839;28;20411;-72
2021/11/10 04:49:16;;;;;;;18.42;11.07;;;0.00;99.90;;;;;;5035183;28;20496;-72
2021/11/10 04:51:44;;;;;;;19.00;10.70;;;-0.10;99.90;;;;;;5036797;28;20496;-72
2021/11/10 04:54:19;;;;;;;9.57;6.70;;;-0.10;99.90;;;;;;5036261;28;20041;-72
2021/11/10 04:56:51;;;;;;;16.27;9.00;;;-0.10;99.90;;;;;;5020746;28;20511;-72
2021/11/10 04:59:24;;;;;;;13.80;9.20;;;-0.10;99.90;;;;;;5017013;28;20048;-72
2021/11/10 05:02:23;;;;;;;12.35;8.50;;;-0.10;99.90;;;;;;5034893;28;20052;-72
2021/11/10 05:04:56;;;;;;;14.65;9.20;;;-0.10;99.90;;;;;;5049398;28;20099;-72
2021/11/10 05:07:32;;;;;;;12.45;8.38;;;-0.10;99.90;;;;;;5034984;28;20546;-72
2021/11/10 05:10:05;;;;;;;14.02;9.63;;;-0.10;99.90;;;;;;5038278;28;20037;-74
2021/11/10 05:12:33;;;;;;;16.98;10.25;;;-0.10;99.90;;;;;;5053378;28;20049;-74
2021/11/10 05:15:07;;;;;;;18.38;10.77;;;-0.10;99.90;;;;;;5035300;28;20049;-72
2021/11/10 05:17:36;;;;;;;15.70;10.05;;;-0.20;99.90;;;;;;5015811;28;20042;-72
2021/11/10 05:20:15;;;;;;;15.05;10.35;;;-0.20;99.90;;;;;;5035251;28;20098;-72
2021/11/10 05:22:49;;;;;;;15.05;10.27;;;-0.20;99.90;;;;;;5029759;28;20103;-72
2021/11/10 05:25:23;;;;;;;16.58;10.40;;;-0.10;99.90;;;;;;5030759;28;20045;-72
2021/11/10 05:27:53;;;;;;;18.15;10.32;;;-0.10;99.90;;;;;;5033930;28;20033;-72
2021/11/10 05:30:21;;;;;;;19.38;10.77;;;-0.10;99.90;;;;;;5035171;28;20077;-72
2021/11/10 05:33:10;;;;;;;20.63;11.43;;;-0.10;99.90;;;;;;5037264;28;20474;-72
2021/11/10 05:35:45;;;;;;;18.88;10.90;;;-0.10;99.90;;;;;;5035860;28;20068;-72
2021/11/10 05:38:21;;;;;;;19.65;12.10;;;-0.10;99.90;;;;;;5033374;28;20133;-71
2021/11/10 05:40:50;;;;;;;17.55;11.70;;;-0.10;99.90;;;;;;5038367;28;20052;-71
2021/11/10 05:43:17;;;;;;;20.35;12.57;;;-0.10;99.90;;;;;;5020692;28;20136;-72
2021/11/10 05:45:45;;;;;;;19.38;12.07;;;-0.10;99.90;;;;;;5031836;28;20040;-72
2021/11/10 05:48:12;;;;;;;18.00;12.13;;;-0.10;99.90;;;;;;5027570;28;20640;-72
2021/11/10 05:50:40;;;;;;;20.73;12.43;;;-0.10;99.90;;;;;;5039255;28;20102;-72
2021/11/10 05:53:11;;;;;;;20.13;12.75;;;-0.10;99.90;;;;;;5033829;28;20053;-72
2021/11/10 05:55:45;;;;;;;20.00;12.30;;;-0.10;99.90;;;;;;5035982;28;20119;-72
2021/11/10 05:58:17;;;;;;;17.88;12.02;;;-0.10;99.90;;;;;;5033684;28;20033;-72
2021/11/10 06:00:55;;;;;;;19.20;12.07;;;-0.10;99.90;;;;;;5035419;28;20045;-72
2021/11/10 06:03:31;;;;;;;19.38;11.45;;;-0.10;99.90;;;;;;5034310;28;20401;-72
2021/11/10 06:06:03;;;;;;;21.30;13.95;;;-0.10;99.90;;;;;;5048337;28;20041;-72
2021/11/10 06:08:37;;;;;;;14.05;10.05;;;-0.20;99.90;;;;;;5029744;28;20037;-72
2021/11/10 06:11:09;;;;;;;17.50;10.57;;;-0.10;99.90;;;;;;5034613;28;20041;-72
2021/11/10 06:13:43;;;;;;;18.58;9.98;;;0.40;99.90;;;;;;5037098;28;20053;-72
2021/11/10 06:16:15;;;;;;;18.30;10.10;;;0.50;99.90;;;;;;5034668;28;20712;-72
2021/11/10 06:18:43;;;;;;;16.15;9.73;;;0.40;99.90;;;;;;5034191;28;20049;-72
2021/11/10 06:21:11;;;;;;;13.02;8.88;;;0.30;99.90;;;;;;5051398;28;20044;-72
2021/11/10 06:23:47;;;;;;;37.75;19.13;;;0.30;99.90;;;;;;5034265;28;20060;-72
2021/11/10 06:26:16;;;;;;;32.95;16.52;;;0.20;99.90;;;;;;5034202;28;20045;-72
2021/11/10 06:28:45;;;;;;;26.40;14.32;;;0.10;99.90;;;;;;5034378;28;20489;-72
2021/11/10 06:31:15;;;;;;;16.65;10.52;;;0.00;99.90;;;;;;5034468;28;20515;-72
2021/11/10 06:33:52;;;;;;;16.10;10.75;;;0.00;99.90;;;;;;5033833;28;20415;-72
2021/11/10 06:36:20;;;;;;;20.45;11.60;;;0.00;99.90;;;;;;5033788;28;20124;-72
2021/11/10 06:38:53;;;;;;;20.60;13.63;;;-0.10;99.90;;;;;;5033993;28;20047;-72
2021/11/10 06:41:22;;;;;;;21.48;13.93;;;-0.10;99.90;;;;;;5034228;28;20045;-72
2021/11/10 06:43:51;;;;;;;21.63;12.20;;;-0.10;99.90;;;;;;5051716;28;20041;-72
2021/11/10 06:46:27;;;;;;;15.70;10.65;;;-0.10;99.90;;;;;;5029620;28;20061;-72
2021/11/10 06:48:59;;;;;;;20.55;10.02;;;-0.10;99.90;;;;;;5047662;28;20048;-72
2021/11/10 06:51:28;;;;;;;17.73;12.15;;;-0.10;99.90;;;;;;5034197;28;20140;-72
2021/11/10 06:53:57;;;;;;;20.85;14.70;;;-0.10;99.90;;;;;;5033523;28;20063;-72
2021/11/10 06:56:25;;;;;;;22.48;13.52;;;-0.10;99.90;;;;;;5033309;28;20049;-72
2021/11/10 06:58:53;;;;;;;22.25;13.55;;;0.00;99.90;;;;;;5052356;28;20563;-72
2021/11/10 07:01:22;;;;;;;17.98;11.80;;;0.00;99.90;;;;;;5033529;28;20045;-72
2021/11/10 07:03:56;;;;;;;19.65;13.50;;;0.00;99.90;;;;;;5030789;28;20045;-72
2021/11/10 07:06:25;;;;;;;24.65;15.35;;;0.00;99.90;;;;;;5033192;28;20136;-72
2021/11/10 07:08:58;;;;;;;26.42;16.98;;;0.10;99.90;;;;;;5033762;28;20507;-72
2021/11/10 07:11:31;;;;;;;28.50;19.48;;;0.10;99.90;;;;;;5034378;28;20091;-72
2021/11/10 07:14:06;;;;;;;38.03;25.73;;;0.10;99.90;;;;;;5050887;28;20037;-72
2021/11/10 07:16:34;;;;;;;51.80;29.05;;;0.20;99.90;;;;;;5034007;28;20041;-72
2021/11/10 07:19:02;;;;;;;44.88;25.80;;;0.20;99.90;;;;;;5028707;28;20122;-72
2021/11/10 07:21:30;;;;;;;46.78;26.60;;;0.20;99.90;;;;;;5032609;28;20045;-72
2021/11/10 07:24:02;;;;;;;28.85;17.23;;;0.20;99.90;;;;;;5012735;28;20136;-72
2021/11/10 07:26:30;;;;;;;28.52;18.25;;;0.30;99.90;;;;;;5031258;28;20056;-72
2021/11/10 07:29:02;;;;;;;27.70;19.80;;;0.30;99.90;;;;;;5014777;28;20049;-72
2021/11/10 07:31:34;;;;;;;27.58;19.52;;;0.30;99.90;;;;;;5031269;28;20408;-72
2021/11/10 07:34:03;;;;;;;19.00;11.93;;;0.30;99.90;;;;;;5031154;28;20083;-72
2021/11/10 07:36:36;;;;;;;35.05;21.30;;;0.30;99.90;;;;;;5045715;28;20053;-72
2021/11/10 07:39:11;;;;;;;43.67;24.65;;;0.30;99.90;;;;;;5050254;28;20036;-72
2021/11/10 07:41:46;;;;;;;35.47;22.92;;;0.30;99.90;;;;;;5051146;28;20051;-72
2021/11/10 07:44:14;;;;;;;33.58;21.00;;;0.30;99.90;;;;;;5036423;28;20055;-72
2021/11/10 07:46:52;;;;;;;28.60;18.63;;;0.30;99.90;;;;;;5053228;28;20041;-72
2021/11/10 07:49:24;;;;;;;23.30;16.08;;;0.30;99.90;;;;;;5052763;28;20718;-72
2021/11/10 07:51:56;;;;;;;23.63;14.48;;;0.40;99.90;;;;;;5032565;28;20037;-72
2021/11/10 07:54:26;;;;;;;17.90;11.60;;;0.40;99.90;;;;;;5032693;28;20120;-72
2021/11/10 07:56:58;;;;;;;23.23;14.68;;;0.40;99.90;;;;;;5030788;28;20045;-72
2021/11/10 07:59:30;;;;;;;23.58;13.23;;;0.50;99.90;;;;;;5030925;28;20072;-72
2021/11/10 08:02:04;;;;;;;21.88;13.57;;;0.70;99.90;;;;;;5003043;28;20464;-72
2021/11/10 08:04:36;;;;;;;31.45;20.08;;;0.70;99.90;;;;;;5025004;28;20504;-72
2021/11/10 08:07:08;;;;;;;28.50;18.63;;;0.70;99.90;;;;;;5032071;28;20051;-72
2021/11/10 08:09:44;;;;;;;25.85;15.88;;;0.70;99.90;;;;;;5034115;28;20053;-72
2021/11/10 08:12:18;;;;;;;21.17;12.65;;;0.70;99.90;;;;;;5012117;28;20519;-72
2021/11/10 08:14:51;;;;;;;21.60;12.90;;;0.80;99.90;;;;;;5012099;28;20645;-72
2021/11/10 08:17:24;;;;;;;20.02;12.35;;;0.80;99.90;;;;;;5015338;28;20060;-72
2021/11/10 08:20:09;;;;;;;21.42;13.68;;;0.90;99.90;;;;;;5030396;28;20079;-72
2021/11/10 08:22:37;;;;;;;22.85;13.18;;;0.90;99.90;;;;;;5032196;28;20041;-72
2021/11/10 08:25:09;;;;;;;22.27;14.20;;;1.00;99.90;;;;;;5049155;28;20055;-72
2021/11/10 08:27:41;;;;;;;18.35;12.60;;;1.00;99.90;;;;;;5031851;28;20095;-72
2021/11/10 08:30:16;;;;;;;19.55;12.57;;;1.10;99.90;;;;;;5030543;28;20056;-72
2021/11/10 08:32:48;;;;;;;20.05;12.73;;;1.20;99.90;;;;;;5032756;28;20037;-72
2021/11/10 08:35:17;;;;;;;19.70;13.82;;;1.30;99.90;;;;;;5032333;28;20037;-72
2021/11/10 08:37:53;;;;;;;22.67;16.73;;;1.30;99.90;;;;;;5032579;28;20439;-72
2021/11/10 08:40:26;;;;;;;26.15;17.25;;;1.30;99.90;;;;;;5028446;28;20075;-72
2021/11/10 08:42:56;;;;;;;25.23;14.65;;;1.40;99.90;;;;;;5044068;28;20037;-72
2021/11/10 08:45:36;;;;;;;23.60;16.08;;;1.40;99.90;;;;;;5032104;28;20068;-73
2021/11/10 08:48:07;;;;;;;27.63;16.65;;;1.50;99.90;;;;;;5049014;28;20534;-72
2021/11/10 08:50:41;;;;;;;29.70;20.00;;;1.60;99.90;;;;;;5049951;28;20068;-72
2021/11/10 08:53:22;;;;;;;34.33;21.90;;;1.60;99.90;;;;;;5001049;28;20525;-72
2021/11/10 08:55:56;;;;;;;31.45;20.45;;;1.70;99.90;;;;;;5032079;28;20041;-72
2021/11/10 08:58:26;;;;;;;;;;;1.70;99.90;;;;;;5029966;28;20135;-72
2021/11/10 09:01:01;;;;;;;29.45;17.83;;;1.80;99.90;;;;;;5029552;28;19964;-72
2021/11/10 09:03:36;;;;;;;26.02;17.25;;;1.80;99.90;;;;;;5036776;28;20060;-72
2021/11/10 09:06:11;;;;;;;27.52;17.02;;;1.80;99.90;;;;;;5030740;28;20045;-72
2021/11/10 09:08:46;;;;;;;30.05;19.73;;;1.90;99.90;;;;;;5031528;28;20784;-72
2021/11/10 09:11:15;;;;;;;29.95;17.90;;;1.90;99.90;;;;;;5032331;28;20835;-72
2021/11/10 09:13:50;;;;;;;24.70;15.82;;;2.00;99.90;;;;;;5018898;28;20519;-72
2021/11/10 09:16:23;;;;;;;21.65;14.65;;;2.00;99.90;;;;;;5039994;28;20401;-72
2021/11/10 09:18:58;;;;;;;32.10;15.85;;;2.00;99.90;;;;;;5041434;28;20041;-72
2021/11/10 09:21:31;;;;;;;23.88;15.07;;;2.10;99.90;;;;;;5062807;28;20106;-72
2021/11/10 09:24:06;;;;;;;24.85;15.15;;;2.10;99.90;;;;;;5032936;28;20040;-72
2021/11/10 09:26:43;;;;;;;26.13;15.75;;;2.20;99.90;;;;;;5052516;28;20468;-72
2021/11/10 09:29:17;;;;;;;24.75;14.50;;;2.20;99.90;;;;;;5034167;28;20076;-72
2021/11/10 09:31:51;;;;;;;27.10;16.60;;;2.30;99.90;;;;;;5035133;28;20049;-72
2021/11/10 09:34:25;;;;;;;22.90;15.23;;;2.30;99.90;;;;;;5029775;28;20129;-72
2021/11/10 09:36:52;;;;;;;23.63;15.27;;;2.30;99.90;;;;;;5052474;28;20494;-72
2021/11/10 09:39:24;;;;;;;28.58;15.35;;;2.40;99.90;;;;;;5049649;28;20044;-72
2021/11/10 09:41:54;;;;;;;27.98;16.95;;;2.40;99.90;;;;;;5052731;28;20128;-72
2021/11/10 09:44:28;;;;;;;29.15;17.98;;;2.50;99.90;;;;;;5040981;28;20057;-72
2021/11/10 09:47:04;;;;;;;31.42;20.88;;;2.50;99.90;;;;;;5052401;28;20056;-72
2021/11/10 09:49:39;;;;;;;46.80;26.55;;;2.60;99.90;;;;;;5034856;28;20059;-72
2021/11/10 09:52:07;;;;;;;49.63;34.83;;;2.60;99.90;;;;;;5018455;28;20075;-72
2021/11/10 09:54:35;;;;;;;48.88;34.30;;;2.70;99.90;;;;;;5033976;28;20053;-72
2021/11/10 09:57:09;;;;;;;26.27;17.67;;;2.70;99.90;;;;;;5016873;28;20049;-72
2021/11/10 09:59:42;;;;;;;45.53;26.17;;;2.80;99.90;;;;;;5031671;28;20049;-72
2021/11/10 10:02:13;;;;;;;76.82;41.25;;;2.80;99.90;;;;;;5034619;28;20049;-72
2021/11/10 10:04:45;;;;;;;27.83;18.67;;;2.90;99.90;;;;;;5052162;28;20079;-72
2021/11/10 10:07:19;;;;;;;26.13;16.15;;;2.90;99.90;;;;;;5019111;28;20059;-72
2021/11/10 10:09:47;;;;;;;23.98;16.35;;;2.90;99.90;;;;;;5035203;28;20049;-72
2021/11/10 10:12:19;;;;;;;27.83;17.52;;;3.00;99.90;;;;;;5036139;28;20053;-72
2021/11/10 10:14:49;;;;;;;27.45;18.20;;;3.00;99.90;;;;;;5051966;28;20040;-72
2021/11/10 10:17:39;;;;;;;29.55;18.50;;;3.00;99.90;;;;;;5034889;28;20075;-72
2021/11/10 10:20:36;;;;;;;26.30;17.50;;;3.10;99.90;;;;;;5018608;28;20045;-72
2021/11/10 10:23:15;;;;;;;23.85;17.17;;;3.10;99.90;;;;;;5032443;28;20675;-72
2021/11/10 10:25:51;;;;;;;25.05;17.38;;;3.20;99.90;;;;;;5034114;28;20049;-72
2021/11/10 10:28:40;;;;;;;27.05;16.75;;;3.30;99.90;;;;;;5047709;28;20043;-72
2021/11/10 10:31:25;;;;;;;25.13;17.38;;;3.30;99.90;;;;;;5035645;28;20459;-72
2021/11/10 10:33:59;;;;;;;25.55;15.50;;;3.40;99.90;;;;;;5052138;28;20443;-72
2021/11/10 10:36:36;;;;;;;25.13;15.68;;;3.40;99.90;;;;;;5031989;28;20045;-72
2021/11/10 10:39:16;;;;;;;25.50;15.50;;;3.50;99.90;;;;;;5051930;28;20035;-72
2021/11/10 10:41:53;;;;;;;21.88;16.10;;;3.60;99.90;;;;;;5034376;28;20084;-72
2021/11/10 10:44:24;;;;;;;27.92;17.95;;;3.60;99.90;;;;;;5033684;28;20049;-72
2021/11/10 10:47:00;;;;;;;;;;;3.70;99.90;;;;;;5033550;28;20427;-72
2021/11/10 10:49:33;;;;;;;29.50;17.48;;;3.70;99.90;;;;;;5052749;28;20012;-72
2021/11/10 10:52:14;;;;;;;28.98;17.40;;;3.80;99.90;;;;;;5017468;28;20136;-72
2021/11/10 10:54:50;;;;;;;25.17;16.55;;;3.80;99.90;;;;;;5048591;28;20047;-72
2021/11/10 10:57:39;;;;;;;29.42;22.48;;;3.80;99.90;;;;;;5035619;28;20073;-72
2021/11/10 11:00:12;;;;;;;30.50;18.38;;;3.90;99.90;;;;;;5051588;28;20040;-72
2021/11/10 11:02:38;;;;;;;26.42;18.52;;;4.00;99.90;;;;;;5033391;28;20400;-72
2021/11/10 11:05:06;;;;;;;28.65;19.38;;;4.00;99.90;;;;;;5033098;28;20044;-72
2021/11/10 11:07:38;;;;;;;25.63;17.50;;;4.00;99.90;;;;;;5046069;28;20041;-72
2021/11/10 11:10:11;;;;;;;29.70;18.08;;;4.00;99.90;;;;;;5040319;28;20056;-72
2021/11/10 11:12:52;;;;;;;37.55;21.23;;;4.00;99.90;;;;;;5032547;28;20082;-72
2021/11/10 11:15:35;;;;;;;34.50;21.65;;;4.10;99.90;;;;;;5028826;28;20048;-72
2021/11/10 11:18:07;;;;;;;43.15;25.63;;;4.10;99.90;;;;;;5049380;28;21441;-72
2021/11/10 11:20:40;;;;;;;34.55;23.42;;;4.10;99.90;;;;;;5046904;28;20038;-72
2021/11/10 11:23:09;;;;;;;30.30;18.60;;;4.20;99.90;;;;;;5022611;28;20128;-72
2021/11/10 11:25:39;;;;;;;30.67;18.55;;;4.30;99.90;;;;;;5051297;28;20036;-72
2021/11/10 11:28:16;;;;;;;27.58;19.83;;;4.30;99.90;;;;;;5042480;28;20055;-72
2021/11/10 11:30:58;;;;;;;28.38;20.05;;;4.40;99.90;;;;;;5051573;28;20048;-72
2021/11/10 11:33:33;;;;;;;27.45;18.92;;;4.40;99.90;;;;;;5017920;28;20049;-72
2021/11/10 11:36:05;;;;;;;29.05;18.80;;;4.40;99.90;;;;;;5033062;28;20056;-72
2021/11/10 11:38:34;;;;;;;25.42;17.83;;;4.50;99.90;;;;;;5033436;28;20053;-72
2021/11/10 11:41:15;;;;;;;29.35;19.10;;;4.50;99.90;;;;;;5017729;28;20047;-72
2021/11/10 11:43:44;;;;;;;33.55;21.65;;;4.50;99.90;;;;;;5032682;28;20044;-72
2021/11/10 11:46:18;;;;;;;29.77;19.65;;;4.60;99.90;;;;;;5033198;28;20043;-72
2021/11/10 11:48:55;;;;;;;31.52;20.85;;;4.70;99.90;;;;;;5040265;28;20052;-72
2021/11/10 11:51:27;;;;;;;29.02;17.98;;;4.80;99.90;;;;;;5034109;28;20041;-72
2021/11/10 11:54:00;;;;;;;29.95;20.98;;;4.80;99.90;;;;;;5023907;28;20056;-72
2021/11/10 11:56:35;;;;;;;32.47;20.15;;;4.80;99.90;;;;;;5038200;28;20049;-72
2021/11/10 11:59:12;;;;;;;27.45;18.70;;;5.00;99.90;;;;;;5031858;28;20044;-72
2021/11/10 12:01:45;;;;;;;31.75;20.42;;;5.00;99.90;;;;;;5031383;28;20808;-72
2021/11/10 12:04:15;;;;;;;34.70;21.50;;;5.00;99.90;;;;;;5037465;28;20048;-72
2021/11/10 12:06:52;;;;;;;31.13;19.70;;;5.10;99.90;;;;;;5032285;28;20500;-72
2021/11/10 12:09:22;;;;;;;30.00;19.15;;;5.20;99.90;;;;;;5034825;28;20057;-72
2021/11/10 12:11:54;;;;;;;29.50;18.98;;;5.30;99.90;;;;;;5030904;28;20041;-72
2021/11/10 12:14:27;;;;;;;27.35;18.80;;;5.40;99.90;;;;;;5031129;28;20045;-72
2021/11/10 12:17:12;;;;;;;28.48;17.77;;;5.40;99.90;;;;;;5049035;28;20047;-72
2021/11/10 12:20:09;;;;;;;29.85;18.02;;;5.50;99.90;;;;;;5047925;28;20041;-71
2021/11/10 12:22:56;;;;;;;29.33;18.05;;;5.50;99.90;;;;;;5030068;28;20033;-72
2021/11/10 12:25:29;;;;;;;;;;;5.60;99.90;;;;;;5031451;28;20476;-71
2021/11/10 12:27:58;;;;;;;26.88;17.58;;;5.60;99.90;;;;;;5050995;28;19921;-71
2021/11/10 12:30:31;;;;;;;29.30;16.55;;;5.70;99.90;;;;;;5028366;28;20053;-71
2021/11/10 12:33:05;;;;;;;25.35;16.45;;;5.70;99.90;;;;;;5037474;28;20095;-72
2021/11/10 12:35:50;;;;;;;28.67;16.48;;;5.70;99.90;;;;;;5029602;28;20060;-72
2021/11/10 12:38:28;;;;;;;25.58;16.58;;;5.70;99.90;;;;;;5049662;28;20110;-71
2021/11/10 12:41:06;;;;;;;29.23;17.67;;;5.70;99.90;;;;;;5032031;28;20140;-72
2021/11/10 12:43:41;;;;;;;30.02;18.95;;;5.80;99.90;;;;;;5031628;28;20044;-72
2021/11/10 12:46:20;;;;;;;27.65;18.23;;;5.90;99.90;;;;;;5029524;28;20045;-72
2021/11/10 12:48:49;;;;;;;26.45;18.38;;;5.90;99.90;;;;;;5017708;28;20136;-72
2021/11/10 12:51:28;;;;;;;29.88;18.48;;;6.00;99.90;;;;;;5040410;28;20045;-72
2021/11/10 12:54:06;;;;;;;29.30;19.30;;;6.10;99.90;;;;;;5033970;28;20044;-71
2021/11/10 12:56:47;;;;;;;26.55;17.38;;;6.20;99.90;;;;;;5032712;28;20044;-71
2021/11/10 12:59:26;;;;;;;30.48;19.30;;;6.20;99.90;;;;;;5055646;28;20064;-71
2021/11/10 13:02:01;;;;;;;32.97;19.45;;;6.30;99.90;;;;;;5046760;28;20496;-72
2021/11/10 13:04:33;;;;;;;31.27;18.92;;;6.40;99.90;;;;;;5047400;28;20036;-72
2021/11/10 13:07:31;;;;;;;30.38;19.75;;;6.50;99.90;;;;;;5035218;28;20041;-71
2021/11/10 13:10:12;;;;;;;28.42;17.63;;;6.50;99.90;;;;;;5052569;28;20048;-72
2021/11/10 13:12:42;;;;;;;33.15;19.60;;;6.50;99.90;;;;;;5034954;28;20059;-72